createdAt,value
2022-10-18T00:00:18.011Z,87.64
2022-10-18T00:03:20.839Z,87.61
2022-10-18T00:06:23.396Z,87.62
2022-10-18T00:09:27.524Z,88.03
2022-10-18T00:12:29.922Z,88.16
2022-10-18T00:15:32.380Z,88.24
2022-10-18T00:18:34.762Z,88.08
2022-10-18T00:21:37.241Z,88.16
2022-10-18T00:24:39.687Z,88.60
2022-10-18T00:27:42.231Z,87.97
2022-10-18T00:30:44.634Z,88.25
2022-10-18T00:33:51.711Z,88.18
2022-10-18T00:36:55.094Z,87.98
2022-10-18T00:39:57.451Z,87.96
2022-10-18T00:42:59.877Z,87.89
2022-10-18T00:46:02.208Z,88.21
2022-10-18T00:49:17.184Z,88.23
2022-10-18T00:52:26.496Z,88.20
2022-10-18T00:55:31.678Z,87.82
2022-10-18T00:58:34.923Z,87.89
2022-10-18T01:01:37.579Z,87.83
2022-10-18T01:04:39.956Z,87.58
2022-10-18T01:07:48.506Z,87.80
2022-10-18T01:11:12.686Z,87.42
2022-10-18T01:14:34.288Z,86.81
2022-10-18T01:18:09.382Z,87.14
2022-10-18T01:21:47.258Z,87.51
2022-10-18T01:25:20.106Z,86.91
2022-10-18T01:28:44.093Z,87.60
2022-10-18T01:31:50.418Z,88.23
2022-10-18T01:34:58.101Z,88.42
2022-10-18T01:38:05.107Z,88.09
2022-10-18T01:41:13.226Z,88.30
2022-10-18T01:44:23.455Z,88.14
2022-10-18T01:47:28.187Z,88.33
2022-10-18T01:50:33.075Z,88.65
2022-10-18T01:53:36.189Z,88.22
2022-10-18T01:57:00.300Z,89.07
2022-10-18T02:00:05.413Z,88.93
2022-10-18T02:03:17.828Z,88.91
2022-10-18T02:06:23.030Z,88.67
2022-10-18T02:09:39.552Z,88.36
2022-10-18T02:12:44.470Z,88.48
2022-10-18T02:15:49.993Z,88.82
2022-10-18T02:18:58.930Z,88.97
2022-10-18T02:22:02.072Z,89.07
2022-10-18T02:25:10.271Z,88.79
2022-10-18T02:28:12.819Z,88.81
2022-10-18T02:31:27.360Z,88.77
2022-10-18T02:34:35.833Z,88.80
2022-10-18T02:37:40.074Z,88.56
2022-10-18T02:40:42.453Z,88.79
2022-10-18T02:43:44.885Z,88.30
2022-10-18T02:46:47.665Z,88.78
2022-10-18T02:49:50.020Z,89.07
2022-10-18T02:52:52.479Z,89.30
2022-10-18T02:55:54.840Z,90.93
2022-10-18T02:58:57.406Z,88.90
2022-10-18T03:01:59.721Z,88.81
2022-10-18T03:05:02.085Z,88.99
2022-10-18T03:08:04.782Z,88.89
2022-10-18T03:11:07.245Z,89.27
2022-10-18T03:14:09.621Z,88.68
2022-10-18T03:17:12.086Z,88.83
2022-10-18T03:20:14.605Z,88.63
2022-10-18T03:23:17.090Z,88.64
2022-10-18T03:26:21.495Z,88.37
2022-10-18T03:29:23.874Z,88.65
2022-10-18T03:32:26.458Z,88.72
2022-10-18T03:35:28.847Z,88.19
2022-10-18T03:38:31.618Z,91.17
2022-10-18T03:41:34.003Z,90.18
2022-10-18T03:44:36.382Z,89.35
2022-10-18T03:47:38.817Z,89.40
2022-10-18T03:50:42.875Z,89.59
2022-10-18T03:53:45.483Z,89.86
2022-10-18T03:56:48.127Z,89.00
2022-10-18T03:59:50.708Z,89.43
2022-10-18T04:02:55.826Z,89.45
2022-10-18T04:06:00.653Z,88.26
2022-10-18T04:09:06.510Z,88.50
2022-10-18T04:12:11.874Z,88.92
2022-10-18T04:15:14.377Z,89.36
2022-10-18T04:18:16.768Z,88.14
2022-10-18T04:21:19.313Z,88.29
2022-10-18T04:24:21.856Z,88.57
2022-10-18T04:27:25.545Z,88.10
2022-10-18T04:30:28.209Z,88.39
2022-10-18T04:33:30.596Z,88.31
2022-10-18T04:36:33.013Z,88.40
2022-10-18T04:39:35.474Z,87.72
2022-10-18T04:42:37.897Z,88.90
2022-10-18T04:45:40.212Z,88.11
2022-10-18T04:48:42.650Z,88.24
2022-10-18T04:51:45.143Z,87.63
2022-10-18T04:54:47.518Z,88.17
2022-10-18T04:57:49.929Z,89.09
2022-10-18T05:00:52.632Z,87.79
2022-10-18T05:03:55.200Z,87.98
2022-10-18T05:06:57.932Z,87.36
2022-10-18T05:10:03.922Z,90.69
2022-10-18T05:13:07.262Z,87.54
2022-10-18T05:16:17.852Z,87.94
2022-10-18T05:19:20.422Z,87.33
2022-10-18T05:22:22.975Z,87.79
2022-10-18T05:25:25.420Z,86.68
2022-10-18T05:28:39.707Z,83.15
2022-10-18T05:31:43.115Z,84.28
2022-10-18T05:34:45.583Z,84.25
2022-10-18T05:37:48.702Z,84.17
2022-10-18T05:40:53.248Z,84.01
2022-10-18T05:43:55.761Z,82.67
2022-10-18T05:46:58.494Z,85.58
2022-10-18T05:50:00.974Z,86.56
2022-10-18T05:53:12.167Z,86.27
2022-10-18T05:56:20.952Z,84.16
2022-10-18T05:59:23.495Z,83.80
2022-10-18T06:02:26.014Z,83.16
2022-10-18T06:05:28.492Z,83.39
2022-10-18T06:08:31.410Z,83.73
2022-10-18T06:11:34.031Z,84.67
2022-10-18T06:14:37.631Z,85.01
2022-10-18T06:17:40.073Z,83.85
2022-10-18T06:20:42.713Z,83.69
2022-10-18T06:23:52.266Z,82.17
2022-10-18T06:26:54.824Z,83.27
2022-10-18T06:29:57.488Z,82.55
2022-10-18T06:33:01.070Z,83.38
2022-10-18T06:36:06.118Z,84.89
2022-10-18T06:39:08.607Z,85.46
2022-10-18T06:42:11.036Z,85.37
2022-10-18T06:45:15.840Z,86.13
2022-10-18T06:51:27.217Z,84.53
2022-10-18T06:54:29.756Z,82.64
2022-10-18T06:57:32.120Z,83.10
2022-10-18T07:00:35.911Z,82.90
2022-10-18T07:03:38.530Z,84.94
2022-10-18T07:06:41.052Z,84.55
2022-10-18T07:09:46.027Z,85.01
2022-10-18T07:12:48.471Z,83.61
2022-10-18T07:16:05.992Z,84.21
2022-10-18T07:19:08.527Z,83.67
2022-10-18T07:22:11.030Z,83.34
2022-10-18T07:25:13.668Z,83.07
2022-10-18T07:28:16.129Z,82.41
2022-10-18T07:31:18.757Z,83.91
2022-10-18T07:34:21.258Z,82.95
2022-10-18T07:37:26.660Z,83.63
2022-10-18T07:40:31.891Z,82.47
2022-10-18T07:43:35.581Z,82.43
2022-10-18T07:46:37.969Z,81.50
2022-10-18T07:49:41.092Z,80.55
2022-10-18T07:52:43.553Z,80.83
2022-10-18T07:55:46.243Z,79.75
2022-10-18T07:58:53.691Z,79.61
2022-10-18T08:01:56.284Z,78.92
2022-10-18T08:04:58.938Z,79.28
2022-10-18T08:08:04.305Z,78.93
2022-10-18T08:11:24.469Z,78.33
2022-10-18T08:14:26.959Z,77.88
2022-10-18T08:17:29.419Z,78.56
2022-10-18T08:20:33.333Z,78.72
2022-10-18T08:23:36.944Z,76.33
2022-10-18T08:26:39.393Z,76.47
2022-10-18T08:29:42.034Z,76.75
2022-10-18T08:32:44.452Z,77.07
2022-10-18T08:36:01.288Z,76.76
2022-10-18T08:39:03.954Z,76.88
2022-10-18T08:42:27.986Z,74.17
2022-10-18T08:45:41.900Z,75.76
2022-10-18T08:48:52.169Z,75.03
2022-10-18T08:51:56.047Z,75.58
2022-10-18T08:55:29.311Z,76.42
2022-10-18T08:58:33.363Z,70.74
2022-10-18T09:01:41.954Z,69.76
2022-10-18T09:05:06.803Z,69.64
2022-10-18T09:08:30.541Z,69.46
2022-10-18T09:11:41.809Z,68.79
2022-10-18T09:15:02.581Z,70.49
2022-10-18T09:18:20.263Z,67.79
2022-10-18T09:21:51.845Z,68.80
2022-10-18T09:25:18.132Z,68.92
2022-10-18T09:28:46.282Z,67.12
2022-10-18T09:32:03.720Z,66.21
2022-10-18T09:35:14.914Z,67.30
2022-10-18T09:38:21.886Z,65.79
2022-10-18T09:41:24.306Z,67.82
2022-10-18T09:44:35.985Z,67.17
2022-10-18T09:47:45.448Z,65.04
2022-10-18T09:50:57.105Z,65.05
2022-10-18T09:54:12.986Z,64.06
2022-10-18T09:57:21.778Z,64.31
2022-10-18T10:00:38.785Z,64.50
2022-10-18T10:03:42.357Z,64.57
2022-10-18T10:06:52.913Z,65.84
2022-10-18T10:09:59.934Z,64.13
2022-10-18T10:13:17.836Z,63.71
2022-10-18T10:16:20.316Z,63.32
2022-10-18T10:19:53.657Z,62.10
2022-10-18T10:23:07.489Z,59.73
2022-10-18T10:26:22.773Z,62.54
2022-10-18T10:29:49.073Z,61.04
2022-10-18T10:32:53.093Z,58.96
2022-10-18T10:36:00.889Z,58.65
2022-10-18T10:39:12.515Z,57.18
2022-10-18T10:42:15.020Z,56.04
2022-10-18T10:45:17.728Z,54.96
2022-10-18T10:48:21.158Z,55.60
2022-10-18T10:51:38.738Z,54.89
2022-10-18T10:54:50.407Z,55.07
2022-10-18T10:57:56.368Z,54.51
2022-10-18T11:01:16.530Z,55.67
2022-10-18T11:04:25.673Z,54.50
2022-10-18T11:07:36.231Z,54.08
2022-10-18T11:11:23.293Z,55.11
2022-10-18T11:14:38.788Z,55.16
2022-10-18T11:18:10.814Z,54.32
2022-10-18T11:21:23.151Z,55.38
2022-10-18T11:24:25.839Z,55.78
2022-10-18T11:27:53.889Z,55.07
2022-10-18T11:31:17.123Z,55.59
2022-10-18T11:34:57.010Z,55.95
2022-10-18T11:38:18.090Z,55.24
2022-10-18T11:41:39.956Z,54.32
2022-10-18T11:44:57.767Z,53.53
2022-10-18T11:48:18.807Z,54.09
2022-10-18T11:52:03.260Z,51.70
2022-10-18T11:55:18.926Z,53.05
2022-10-18T11:58:50.758Z,52.81
2022-10-18T12:02:15.311Z,50.75
2022-10-18T12:05:23.743Z,50.68
2022-10-18T12:08:37.113Z,52.70
2022-10-18T12:11:58.539Z,51.56
2022-10-18T12:15:14.407Z,50.85
2022-10-18T12:18:20.343Z,52.37
2022-10-18T12:21:25.887Z,51.19
2022-10-18T12:24:31.931Z,49.81
2022-10-18T12:27:44.026Z,51.23
2022-10-18T12:31:18.851Z,52.59
2022-10-18T12:34:21.368Z,47.72
2022-10-18T12:37:36.134Z,47.75
2022-10-18T12:40:46.062Z,49.67
2022-10-18T12:43:54.786Z,50.48
2022-10-18T12:47:02.776Z,47.72
2022-10-18T12:50:23.045Z,49.65
2022-10-18T12:53:27.953Z,50.54
2022-10-18T12:56:32.874Z,51.81
2022-10-18T12:59:35.242Z,51.17
2022-10-18T13:02:37.908Z,51.82
2022-10-18T13:06:04.177Z,51.17
2022-10-18T13:09:21.005Z,51.21
2022-10-18T13:12:23.422Z,51.74
2022-10-18T13:15:35.449Z,52.50
2022-10-18T13:18:47.709Z,52.06
2022-10-18T13:21:59.589Z,52.32
2022-10-18T13:25:17.269Z,52.53
2022-10-18T13:28:19.683Z,53.33
2022-10-18T13:31:45.114Z,53.09
2022-10-18T13:34:47.742Z,53.66
2022-10-18T13:38:00.007Z,53.59
2022-10-18T13:41:08.732Z,52.95
2022-10-18T13:44:33.242Z,52.66
2022-10-18T13:47:38.077Z,52.87
2022-10-18T13:50:43.064Z,53.65
2022-10-18T13:54:11.196Z,53.70
2022-10-18T13:57:41.875Z,53.62
2022-10-18T14:00:50.507Z,53.71
2022-10-18T14:04:11.160Z,54.52
2022-10-18T14:07:19.165Z,53.71
2022-10-18T14:10:57.407Z,53.02
2022-10-18T14:14:13.515Z,53.38
2022-10-18T14:17:24.981Z,52.59
2022-10-18T14:20:49.517Z,53.94
2022-10-18T14:24:00.391Z,52.64
2022-10-18T14:27:13.212Z,52.41
2022-10-18T14:30:20.208Z,53.00
2022-10-18T14:33:43.713Z,52.86
2022-10-18T14:36:48.458Z,52.63
2022-10-18T14:39:51.069Z,53.21
2022-10-18T14:42:53.486Z,53.66
2022-10-18T14:46:09.410Z,54.29
2022-10-18T14:49:13.171Z,53.77
2022-10-18T14:52:18.529Z,53.91
2022-10-18T14:55:26.941Z,53.97
2022-10-18T14:58:30.217Z,54.13
2022-10-18T15:01:33.123Z,54.75
2022-10-18T15:04:35.696Z,56.48
2022-10-18T15:07:38.410Z,56.14
2022-10-18T15:10:41.654Z,57.15
2022-10-18T15:13:53.482Z,57.97
2022-10-18T15:17:03.447Z,58.39
2022-10-18T15:20:27.282Z,58.87
2022-10-18T15:23:31.331Z,58.19
2022-10-18T15:26:33.798Z,58.96
2022-10-18T15:29:37.752Z,60.12
2022-10-18T15:32:48.580Z,59.78
2022-10-18T15:35:53.065Z,60.15
2022-10-18T15:39:18.394Z,60.03
2022-10-18T15:42:38.798Z,60.89
2022-10-18T15:49:18.124Z,61.65
2022-10-18T15:52:39.310Z,61.76
2022-10-18T15:55:46.746Z,62.52
2022-10-18T15:58:51.281Z,62.94
2022-10-18T16:01:54.337Z,63.19
2022-10-18T16:05:01.805Z,64.40
2022-10-18T16:08:04.356Z,65.25
2022-10-18T16:11:08.204Z,66.16
2022-10-18T16:14:10.827Z,66.45
2022-10-18T16:17:16.921Z,66.37
2022-10-18T16:20:22.278Z,67.08
2022-10-18T16:23:28.700Z,68.14
2022-10-18T16:26:32.069Z,68.50
2022-10-18T16:29:35.088Z,68.65
2022-10-18T16:32:37.486Z,69.45
2022-10-18T16:35:39.853Z,70.05
2022-10-18T16:38:42.980Z,70.21
2022-10-18T16:41:46.516Z,69.97
2022-10-18T16:44:49.116Z,68.95
2022-10-18T16:47:51.543Z,68.86
2022-10-18T16:50:55.946Z,68.95
2022-10-18T16:53:58.349Z,68.86
2022-10-18T16:57:00.717Z,69.42
2022-10-18T17:00:04.268Z,68.38
2022-10-18T17:03:09.495Z,68.60
2022-10-18T17:06:21.026Z,68.78
2022-10-18T17:09:23.351Z,69.16
2022-10-18T17:12:25.816Z,69.50
2022-10-18T17:15:31.573Z,70.18
2022-10-18T17:18:37.214Z,70.29
2022-10-18T17:21:39.790Z,70.12
2022-10-18T17:24:42.157Z,68.85
2022-10-18T17:27:45.599Z,69.65
2022-10-18T17:30:54.446Z,70.22
2022-10-18T17:33:58.628Z,70.49
2022-10-18T17:37:01.180Z,69.05
2022-10-18T17:40:06.743Z,67.98
2022-10-18T17:43:10.325Z,69.65
2022-10-18T17:46:14.221Z,71.11
2022-10-18T17:49:16.980Z,71.99
2022-10-18T17:52:19.351Z,72.20
2022-10-18T17:55:21.741Z,71.54
2022-10-18T17:58:24.227Z,72.24
2022-10-18T18:01:26.823Z,72.95
2022-10-18T18:04:29.396Z,73.29
2022-10-18T18:07:31.880Z,72.05
2022-10-18T18:10:35.361Z,72.32
2022-10-18T18:13:37.910Z,72.76
2022-10-18T18:16:43.134Z,69.80
2022-10-18T18:19:45.631Z,69.80
2022-10-18T18:22:48.048Z,70.30
2022-10-18T18:25:57.490Z,72.32
2022-10-18T18:32:03.652Z,73.30
2022-10-18T18:35:06.407Z,73.93
2022-10-18T18:38:09.161Z,74.37
2022-10-18T18:41:17.580Z,74.19
2022-10-18T18:44:22.469Z,74.45
2022-10-18T18:47:24.832Z,74.31
2022-10-18T18:50:28.249Z,74.18
2022-10-18T18:53:31.180Z,76.04
2022-10-18T18:56:34.104Z,77.11
2022-10-18T18:59:36.753Z,76.67
2022-10-18T19:02:39.172Z,76.10
2022-10-18T19:05:41.575Z,75.64
2022-10-18T19:08:45.022Z,74.52
2022-10-18T19:11:49.752Z,74.52
2022-10-18T19:14:52.072Z,74.65
2022-10-18T19:17:56.246Z,75.18
2022-10-18T19:20:58.643Z,76.12
2022-10-18T19:24:01.882Z,76.83
2022-10-18T19:27:12.299Z,77.32
2022-10-18T19:30:14.874Z,77.12
2022-10-18T19:33:35.510Z,77.68
2022-10-18T19:36:47.161Z,78.85
2022-10-18T19:39:49.736Z,79.71
2022-10-18T19:42:52.227Z,80.08
2022-10-18T19:45:54.703Z,79.68
2022-10-18T19:48:57.351Z,80.03
2022-10-18T19:51:59.828Z,81.13
2022-10-18T19:55:02.170Z,81.29
2022-10-18T19:58:04.623Z,80.12
2022-10-18T20:01:07.090Z,79.69
2022-10-18T20:04:10.555Z,79.57
2022-10-18T20:07:12.951Z,79.29
2022-10-18T20:10:17.011Z,80.23
2022-10-18T20:13:19.884Z,80.75
2022-10-18T20:16:28.088Z,81.33
2022-10-18T20:19:31.552Z,82.13
2022-10-18T20:22:34.249Z,82.24
2022-10-18T20:25:36.814Z,82.65
2022-10-18T20:28:39.941Z,82.45
2022-10-18T20:31:42.372Z,80.90
2022-10-18T20:34:44.725Z,80.90
2022-10-18T20:37:47.420Z,80.63
2022-10-18T20:40:52.285Z,81.13
2022-10-18T20:43:57.072Z,80.83
2022-10-18T20:46:59.561Z,79.85
2022-10-18T20:50:01.953Z,79.54
2022-10-18T20:53:04.263Z,79.56
2022-10-18T20:56:09.688Z,79.35
2022-10-18T20:59:12.252Z,79.78
2022-10-18T21:02:14.631Z,79.31
2022-10-18T21:05:18.335Z,79.59
2022-10-18T21:08:20.708Z,79.17
2022-10-18T21:11:24.017Z,79.79
2022-10-18T21:14:29.150Z,80.40
2022-10-18T21:17:31.619Z,80.63
2022-10-18T21:20:41.440Z,79.41
2022-10-18T21:23:44.618Z,79.33
2022-10-18T21:26:47.936Z,79.27
2022-10-18T21:29:50.277Z,80.23
2022-10-18T21:32:52.715Z,80.06
2022-10-18T21:35:55.039Z,80.89
2022-10-18T21:38:57.588Z,80.99
2022-10-18T21:41:59.931Z,81.93
2022-10-18T21:45:02.269Z,82.19
2022-10-18T21:48:04.828Z,82.98
2022-10-18T21:51:08.536Z,83.05
2022-10-18T21:54:13.635Z,82.73
2022-10-18T21:57:15.990Z,83.73
2022-10-18T22:00:19.327Z,83.40
2022-10-18T22:03:23.297Z,84.01
2022-10-18T22:06:29.176Z,83.93
2022-10-18T22:09:31.802Z,83.91
2022-10-18T22:12:34.235Z,83.76
2022-10-18T22:18:46.042Z,83.24
2022-10-18T22:21:48.633Z,82.93
2022-10-18T22:24:50.946Z,83.04
2022-10-18T22:27:53.297Z,83.12
2022-10-18T22:30:55.602Z,82.84
2022-10-18T22:34:00.565Z,82.94
2022-10-18T22:37:02.997Z,83.62
2022-10-18T22:40:05.939Z,83.63
2022-10-18T22:43:08.341Z,84.09
2022-10-18T22:46:12.658Z,83.52
2022-10-18T22:49:15.216Z,83.24
2022-10-18T22:52:17.554Z,83.37
2022-10-18T22:55:20.004Z,82.92
2022-10-18T22:58:22.778Z,82.93
2022-10-18T23:01:25.426Z,82.92
2022-10-18T23:04:27.872Z,82.55
2022-10-18T23:07:30.257Z,81.92
2022-10-18T23:10:38.418Z,81.90
2022-10-18T23:13:40.794Z,81.94
2022-10-18T23:16:43.330Z,81.80
2022-10-18T23:19:46.387Z,82.02
2022-10-18T23:22:48.841Z,82.46
2022-10-18T23:25:54.186Z,82.08
2022-10-18T23:28:57.316Z,82.79
2022-10-18T23:31:59.847Z,82.53
2022-10-18T23:35:02.188Z,82.77
2022-10-18T23:38:04.543Z,82.18
2022-10-18T23:41:10.262Z,80.96
2022-10-18T23:44:12.723Z,81.48
2022-10-18T23:47:15.714Z,81.48
2022-10-18T23:50:20.536Z,82.04
2022-10-18T23:53:23.378Z,82.18
2022-10-18T23:56:25.842Z,82.27
2022-10-18T23:59:28.246Z,82.31
